createdAt,value
2023-05-10T00:00:23.594Z,7.10
2023-05-10T00:05:46.615Z,4.35
2023-05-10T00:10:50.980Z,8.27
2023-05-10T00:15:56.259Z,7.15
2023-05-10T00:21:00.119Z,8.50
2023-05-10T00:26:04.163Z,5.53
2023-05-10T00:31:09.531Z,24.63
2023-05-10T00:36:13.508Z,27.88
2023-05-10T00:41:18.810Z,22.00
2023-05-10T00:46:25.250Z,25.02
2023-05-10T00:51:29.234Z,26.25
2023-05-10T00:56:33.692Z,22.15
2023-05-10T01:01:40.043Z,29.73
2023-05-10T01:06:44.479Z,23.25
2023-05-10T01:11:49.452Z,24.48
2023-05-10T01:16:55.406Z,25.88
2023-05-10T01:27:28.683Z,24.40
2023-05-10T01:32:38.932Z,24.73
2023-05-10T01:37:47.568Z,20.92
2023-05-10T01:42:56.597Z,24.00
2023-05-10T01:48:08.542Z,27.23
2023-05-10T01:53:15.248Z,17.27
2023-05-10T01:58:23.328Z,20.92
2023-05-10T02:03:31.509Z,19.08
2023-05-10T02:08:38.213Z,18.60
2023-05-10T02:13:44.591Z,24.30
2023-05-10T02:18:52.546Z,25.77
2023-05-10T02:23:57.502Z,22.08
2023-05-10T02:29:04.385Z,17.85
2023-05-10T02:34:11.748Z,18.60
2023-05-10T02:39:17.812Z,18.65
2023-05-10T02:44:23.138Z,18.30
2023-05-10T02:49:28.539Z,17.60
2023-05-10T02:54:35.333Z,16.90
2023-05-10T02:59:39.240Z,16.05
2023-05-10T03:04:44.590Z,14.10
2023-05-10T03:09:51.130Z,19.27
2023-05-10T03:15:13.343Z,15.35
2023-05-10T03:20:26.767Z,15.50
2023-05-10T03:25:33.281Z,23.55
2023-05-10T03:30:39.421Z,22.50
2023-05-10T03:35:46.836Z,16.27
2023-05-10T03:40:51.804Z,15.50
2023-05-10T03:45:55.851Z,18.33
2023-05-10T03:51:01.276Z,15.95
2023-05-10T03:56:05.556Z,20.20
2023-05-10T04:01:09.632Z,15.63
2023-05-10T04:06:15.090Z,14.98
2023-05-10T04:11:19.127Z,19.98
2023-05-10T04:16:23.014Z,13.10
2023-05-10T04:21:28.455Z,14.18
2023-05-10T04:26:32.412Z,16.17
2023-05-10T04:31:37.367Z,14.63
2023-05-10T04:36:42.660Z,18.07
2023-05-10T04:41:46.593Z,17.13
2023-05-10T04:46:50.506Z,12.93
2023-05-10T04:51:56.075Z,15.65
2023-05-10T04:57:00.034Z,16.75
2023-05-10T05:02:04.583Z,15.68
2023-05-10T05:07:10.049Z,13.23
2023-05-10T05:12:15.338Z,18.30
2023-05-10T05:17:19.511Z,17.15
2023-05-10T05:22:28.517Z,17.80
2023-05-10T05:27:32.482Z,11.95
2023-05-10T05:32:36.853Z,15.18
2023-05-10T05:37:42.222Z,11.40
2023-05-10T05:42:46.156Z,12.05
2023-05-10T05:47:50.187Z,17.73
2023-05-10T05:52:55.534Z,11.48
2023-05-10T05:57:59.419Z,9.93
2023-05-10T06:03:03.501Z,16.95
2023-05-10T06:08:08.908Z,15.10
2023-05-10T06:13:12.959Z,15.52
2023-05-10T06:18:16.944Z,8.20
2023-05-10T06:23:23.277Z,8.93
2023-05-10T06:28:27.172Z,13.10
2023-05-10T06:33:31.112Z,7.78
2023-05-10T06:38:36.498Z,4.30
2023-05-10T06:43:42.288Z,8.45
2023-05-10T06:53:51.222Z,4.13
2023-05-10T06:58:55.267Z,7.93
2023-05-10T07:03:59.160Z,6.72
2023-05-10T07:09:04.829Z,8.68
2023-05-10T07:14:08.821Z,6.53
2023-05-10T07:19:12.783Z,10.02
2023-05-10T07:24:18.730Z,7.45
2023-05-10T07:29:22.800Z,4.07
2023-05-10T07:34:26.773Z,4.40
2023-05-10T07:39:32.213Z,2.78
2023-05-10T07:44:36.163Z,5.80
2023-05-10T07:49:40.228Z,6.10
2023-05-10T07:54:45.674Z,5.70
2023-05-10T07:59:49.547Z,4.63
2023-05-10T08:04:55.015Z,5.75
2023-05-10T08:10:00.256Z,8.60
2023-05-10T08:15:04.745Z,3.45
2023-05-10T08:20:09.674Z,4.68
2023-05-10T08:25:17.052Z,11.33
2023-05-10T08:30:21.419Z,6.47
2023-05-10T08:35:25.553Z,9.38
2023-05-10T08:40:31.290Z,7.57
2023-05-10T08:50:41.625Z,8.05
2023-05-10T08:55:47.273Z,16.17
2023-05-10T09:00:53.493Z,7.45
2023-05-10T09:05:57.931Z,8.05
2023-05-10T09:11:03.943Z,7.22
2023-05-10T09:16:20.481Z,6.85
2023-05-10T09:21:27.528Z,8.25
2023-05-10T09:26:33.001Z,8.50
2023-05-10T09:31:48.884Z,7.82
2023-05-10T09:36:56.318Z,6.00
2023-05-10T09:42:04.830Z,6.97
2023-05-10T09:47:08.794Z,7.20
2023-05-10T09:52:12.687Z,6.68
2023-05-10T09:57:23.476Z,6.00
2023-05-10T10:02:31.377Z,6.97
2023-05-10T10:07:36.328Z,4.28
2023-05-10T10:12:43.980Z,5.50
2023-05-10T10:17:48.936Z,10.32
2023-05-10T10:22:53.623Z,5.72
2023-05-10T10:28:11.488Z,8.90
2023-05-10T10:33:42.453Z,5.55
2023-05-10T10:39:02.313Z,4.88
2023-05-10T10:44:27.065Z,7.78
2023-05-10T10:49:34.628Z,10.52
2023-05-10T10:54:39.336Z,4.57
2023-05-10T10:59:48.049Z,6.93
2023-05-10T11:04:52.005Z,6.78
2023-05-10T11:10:06.121Z,6.20
2023-05-10T11:15:12.630Z,10.07
2023-05-10T11:20:17.276Z,6.07
2023-05-10T11:25:21.958Z,4.50
2023-05-10T11:30:27.601Z,5.13
2023-05-10T11:35:31.767Z,2.67
2023-05-10T11:40:36.081Z,4.70
2023-05-10T11:45:43.627Z,4.17
2023-05-10T11:50:48.485Z,6.50
2023-05-10T11:55:52.567Z,3.75
2023-05-10T12:00:58.483Z,3.53
2023-05-10T12:06:05.696Z,5.57
2023-05-10T12:11:11.409Z,6.10
2023-05-10T12:16:18.695Z,5.45
2023-05-10T12:21:23.524Z,3.42
2023-05-10T12:26:28.508Z,5.97
2023-05-10T12:31:33.917Z,6.30
2023-05-10T12:36:41.042Z,5.15
2023-05-10T12:41:45.290Z,7.85
2023-05-10T12:46:50.996Z,6.17
2023-05-10T12:51:55.117Z,3.10
2023-05-10T12:56:59.083Z,9.25
2023-05-10T13:02:04.508Z,9.40
2023-05-10T13:07:08.798Z,4.65
2023-05-10T13:12:12.966Z,13.27
2023-05-10T13:17:18.355Z,6.72
2023-05-10T13:22:32.581Z,7.55
2023-05-10T13:27:43.680Z,5.32
2023-05-10T13:32:49.149Z,7.30
2023-05-10T13:37:56.342Z,7.13
2023-05-10T13:43:00.364Z,8.90
2023-05-10T13:48:06.303Z,8.13
2023-05-10T13:53:10.389Z,9.35
2023-05-10T13:58:14.470Z,9.77
2023-05-10T14:03:19.969Z,7.85
2023-05-10T14:08:24.203Z,8.65
2023-05-10T14:13:28.628Z,5.32
2023-05-10T14:18:34.075Z,11.10
2023-05-10T14:23:38.062Z,8.32
2023-05-10T14:28:42.156Z,5.53
2023-05-10T14:33:47.790Z,8.40
2023-05-10T14:38:51.891Z,9.07
2023-05-10T14:43:56.367Z,10.02
2023-05-10T14:49:01.697Z,5.30
2023-05-10T14:54:05.750Z,6.20
2023-05-10T14:59:09.939Z,10.75
2023-05-10T15:04:17.562Z,6.60
2023-05-10T15:09:22.131Z,5.93
2023-05-10T15:14:26.167Z,9.85
2023-05-10T15:19:31.527Z,5.60
2023-05-10T15:24:35.492Z,4.85
2023-05-10T15:29:39.581Z,9.57
2023-05-10T15:34:45.094Z,7.25
2023-05-10T15:45:12.420Z,4.80
2023-05-10T15:50:18.380Z,9.25
2023-05-10T15:55:22.353Z,8.02
2023-05-10T16:00:26.484Z,7.88
2023-05-10T16:05:33.688Z,5.95
2023-05-10T16:10:38.175Z,8.40
2023-05-10T16:15:42.116Z,6.63
2023-05-10T16:20:47.609Z,7.40
2023-05-10T16:25:51.495Z,9.80
2023-05-10T16:30:55.450Z,6.50
2023-05-10T16:36:00.756Z,16.13
2023-05-10T16:41:04.951Z,10.63
2023-05-10T16:46:12.523Z,9.38
2023-05-10T16:51:17.883Z,6.65
2023-05-10T16:56:23.415Z,6.43
2023-05-10T17:01:27.602Z,6.53
2023-05-10T17:06:33.923Z,13.27
2023-05-10T17:11:38.028Z,12.23
2023-05-10T17:16:42.820Z,6.70
2023-05-10T17:21:48.191Z,12.13
2023-05-10T17:26:53.325Z,9.65
2023-05-10T17:32:00.776Z,10.57
2023-05-10T17:37:06.404Z,12.65
2023-05-10T17:42:10.311Z,10.25
2023-05-10T17:47:14.336Z,6.13
2023-05-10T17:52:19.948Z,7.43
2023-05-10T17:57:24.800Z,10.35
2023-05-10T18:02:28.776Z,11.48
2023-05-10T18:07:35.913Z,11.55
2023-05-10T18:12:39.956Z,11.48
2023-05-10T18:17:44.124Z,9.07
2023-05-10T18:22:49.896Z,12.07
2023-05-10T18:32:58.149Z,13.10
2023-05-10T18:38:03.687Z,9.02
2023-05-10T18:43:07.595Z,8.77
2023-05-10T18:48:11.522Z,7.95
2023-05-10T18:53:17.104Z,10.73
2023-05-10T18:58:21.214Z,12.75
2023-05-10T19:03:25.676Z,11.57
2023-05-10T19:08:31.229Z,9.95
2023-05-10T19:13:35.304Z,22.40
2023-05-10T19:18:40.584Z,11.95
2023-05-10T19:23:45.884Z,16.25
2023-05-10T19:28:52.456Z,12.77
2023-05-10T19:33:58.052Z,15.57
2023-05-10T19:39:05.989Z,17.63
2023-05-10T19:44:09.951Z,11.70
2023-05-10T19:49:13.880Z,13.68
2023-05-10T19:54:19.258Z,14.15
2023-05-10T19:59:23.516Z,11.82
2023-05-10T20:04:28.948Z,17.08
2023-05-10T20:09:34.727Z,17.60
2023-05-10T20:14:38.636Z,16.40
2023-05-10T20:19:42.817Z,12.40
2023-05-10T20:24:48.557Z,18.15
2023-05-10T20:34:56.509Z,20.70
2023-05-10T20:40:02.066Z,26.00
2023-05-10T20:45:07.279Z,22.38
2023-05-10T20:50:12.366Z,18.75
2023-05-10T20:55:17.783Z,19.73
2023-05-10T21:00:22.294Z,19.50
2023-05-10T21:05:26.430Z,16.95
2023-05-10T21:10:31.782Z,20.25
2023-05-10T21:15:35.780Z,16.80
2023-05-10T21:20:39.674Z,22.92
2023-05-10T21:25:45.112Z,15.15
2023-05-10T21:30:49.099Z,18.60
2023-05-10T21:35:53.463Z,18.08
2023-05-10T21:40:58.738Z,16.15
2023-05-10T21:46:03.053Z,14.60
2023-05-10T21:51:07.166Z,14.98
2023-05-10T21:56:12.776Z,18.40
2023-05-10T22:01:18.052Z,27.30
2023-05-10T22:06:21.980Z,15.17
2023-05-10T22:11:27.510Z,18.02
2023-05-10T22:16:31.696Z,14.82
2023-05-10T22:21:35.714Z,17.63
2023-05-10T22:26:40.937Z,15.15
2023-05-10T22:31:44.906Z,12.68
2023-05-10T22:36:49.647Z,13.95
2023-05-10T22:41:54.922Z,16.27
2023-05-10T22:46:58.862Z,9.18
2023-05-10T22:52:02.865Z,14.45
2023-05-10T22:57:08.369Z,14.23
2023-05-10T23:02:14.329Z,11.30
2023-05-10T23:07:18.306Z,15.02
2023-05-10T23:12:23.533Z,16.05
2023-05-10T23:17:27.564Z,14.15
2023-05-10T23:22:31.515Z,13.82
2023-05-10T23:27:36.834Z,11.85
2023-05-10T23:32:40.721Z,18.50
2023-05-10T23:37:44.758Z,9.80
2023-05-10T23:42:50.160Z,10.77
2023-05-10T23:47:54.298Z,18.40
2023-05-10T23:52:58.333Z,13.07
2023-05-10T23:58:03.706Z,15.25
